Wetterstation Vordersexau
Wetterdaten: Woche 29.05.17 - 04.06.17 (KW22)
Datum Zeit Temp. A. Feuchte A. Luftdruck Regen Wind Richtung Taupunkt Windchill Windben
29.05.2017 00:00 16,0 C 82 % 1012,9 hPa 0,0 l/m 0,0 km/h O-NO 12,9 C 16,0 C 0,0 km/h
29.05.2017 01:00 15,4 C 83 % 1013,1 hPa 0,0 l/m 0,0 km/h O-SO 12,5 C 15,4 C 0,0 km/h
29.05.2017 02:00 16,7 C 83 % 1013,2 hPa 0,0 l/m 0,0 km/h O-SO 13,8 C 16,7 C 0,0 km/h
29.05.2017 03:00 21,6 C 78 % 1013,1 hPa 0,0 l/m 0,0 km/h SO 17,6 C 21,6 C 0,0 km/h
29.05.2017 04:00 29,3 C 56 % 1013,2 hPa 0,0 l/m 0,0 km/h W 19,6 C 29,3 C 0,0 km/h
29.05.2017 05:00 33,0 C 41 % 1013,2 hPa 0,0 l/m 2,6 km/h W 18,0 C 33,0 C 1,4 km/h
29.05.2017 06:00 31,2 C 37 % 1012,8 hPa 0,0 l/m 6,5 km/h W-SW 14,8 C 31,2 C 3,6 km/h
29.05.2017 07:00 31,4 C 37 % 1012,6 hPa 0,0 l/m 0,0 km/h W-SW 14,9 C 31,4 C 0,0 km/h
29.05.2017 08:00 32,5 C 39 % 1012,2 hPa 0,0 l/m 5,8 km/h W-SW 16,7 C 32,5 C 3,2 km/h
29.05.2017 09:00 34,5 C 37 % 1011,5 hPa 0,0 l/m 3,2 km/h W 17,7 C 34,5 C 1,8 km/h
29.05.2017 10:00 35,7 C 34 % 1011,0 hPa 0,0 l/m 0,0 km/h W 17,4 C 35,7 C 0,0 km/h
29.05.2017 11:00 34,8 C 36 % 1010,6 hPa 0,0 l/m 5,2 km/h W-NW 17,5 C 34,8 C 2,9 km/h
29.05.2017 12:00 36,9 C 31 % 1010,4 hPa 0,0 l/m 3,2 km/h W-SW 16,9 C 36,9 C 1,8 km/h
29.05.2017 13:00 38,6 C 30 % 1009,8 hPa 0,0 l/m 0,0 km/h W 17,9 C 38,6 C 0,0 km/h
29.05.2017 14:00 38,1 C 28 % 1010,0 hPa 0,0 l/m 0,0 km/h N-NO 16,4 C 38,1 C 0,0 km/h
29.05.2017 15:00 30,2 C 42 % 1010,3 hPa 0,0 l/m 1,9 km/h O-SO 15,8 C 30,2 C 1,1 km/h
29.05.2017 16:00 25,4 C 60 % 1010,8 hPa 0,0 l/m 0,0 km/h O-SO 17,1 C 25,4 C 0,0 km/h
29.05.2017 17:00 22,8 C 69 % 1011,3 hPa 0,0 l/m 0,0 km/h O-SO 16,8 C 22,8 C 0,0 km/h
29.05.2017 18:00 21,1 C 74 % 1011,7 hPa 0,0 l/m 0,0 km/h SO 16,3 C 21,1 C 0,0 km/h
29.05.2017 19:00 21,1 C 76 % 1012,1 hPa 0,0 l/m 0,0 km/h N 16,7 C 21,1 C 0,0 km/h
29.05.2017 20:00 20,7 C 73 % 1012,7 hPa 0,0 l/m 0,0 km/h O 15,7 C 20,7 C 0,0 km/h
29.05.2017 21:00 19,9 C 73 % 1012,3 hPa 0,0 l/m 0,0 km/h O-SO 14,9 C 19,9 C 0,0 km/h
29.05.2017 22:00 19,1 C 77 % 1012,2 hPa 0,0 l/m 5,2 km/h O-SO 15,0 C 19,1 C 2,9 km/h
29.05.2017 23:00 18,8 C 78 % 1012,2 hPa 0,0 l/m 0,0 km/h O-SO 14,9 C 18,8 C 0,0 km/h
30.05.2017 00:00 18,4 C 79 % 1011,9 hPa 0,0 l/m 0,0 km/h O-SO 14,7 C 18,4 C 0,0 km/h
30.05.2017 01:00 18,1 C 80 % 1011,9 hPa 0,0 l/m 5,2 km/h NO 14,6 C 18,1 C 2,9 km/h
30.05.2017 02:00 18,3 C 80 % 1012,1 hPa 0,0 l/m 0,0 km/h O-SO 14,8 C 18,3 C 0,0 km/h
30.05.2017 03:00 19,2 C 79 % 1012,5 hPa 0,0 l/m 0,0 km/h O-SO 15,5 C 19,2 C 0,0 km/h
30.05.2017 04:00 18,4 C 79 % 1011,9 hPa 0,0 l/m 0,0 km/h O-SO 14,7 C 18,4 C 0,0 km/h
30.05.2017 05:00 18,1 C 80 % 1011,9 hPa 0,0 l/m 5,2 km/h NO 14,6 C 18,1 C 2,9 km/h
30.05.2017 06:00 18,3 C 80 % 1012,1 hPa 0,0 l/m 0,0 km/h O-SO 14,8 C 18,3 C 0,0 km/h
30.05.2017 07:00 19,2 C 79 % 1012,5 hPa 0,0 l/m 0,0 km/h SO 15,5 C 19,2 C 0,0 km/h
30.05.2017 08:00 21,3 C 77 % 1012,7 hPa 0,0 l/m 1,9 km/h SO 17,1 C 21,3 C 1,1 km/h
30.05.2017 09:00 27,4 C 60 % 1012,9 hPa 0,0 l/m 6,5 km/h W-SW 18,9 C 27,4 C 3,6 km/h
30.05.2017 10:00 27,3 C 45 % 1013,3 hPa 0,0 l/m 13,0 km/h W 14,3 C 26,3 C 7,2 km/h
30.05.2017 11:00 25,6 C 50 % 1013,5 hPa 0,0 l/m 0,0 km/h W-SW 14,4 C 25,6 C 0,0 km/h
30.05.2017 12:00 26,6 C 51 % 1013,6 hPa 0,0 l/m 0,0 km/h S-SW 15,6 C 26,6 C 0,0 km/h
30.05.2017 13:00 28,3 C 48 % 1013,3 hPa 0,0 l/m 0,6 km/h W-SW 16,2 C 28,3 C 0,4 km/h
30.05.2017 14:00 31,8 C 42 % 1012,5 hPa 0,0 l/m 1,9 km/h W-NW 17,3 C 31,8 C 1,1 km/h
30.05.2017 15:00 31,5 C 40 % 1012,3 hPa 0,0 l/m 20,1 km/h W-SW 16,2 C 31,1 C 11,2 km/h
30.05.2017 16:00 33,8 C 39 % 1012,2 hPa 0,0 l/m 8,4 km/h N 17,9 C 33,8 C 4,7 km/h
30.05.2017 17:00 26,2 C 54 % 1012,9 hPa 0,0 l/m 5,2 km/h O-NO 16,1 C 26,2 C 2,9 km/h
30.05.2017 18:00 21,4 C 78 % 1013,6 hPa 3,1 l/m 0,0 km/h N 17,4 C 21,4 C 0,0 km/h
30.05.2017 19:00 21,6 C 74 % 1014,0 hPa 0,0 l/m 1,3 km/h SO 16,8 C 21,6 C 0,7 km/h
30.05.2017 20:00 20,2 C 80 % 1014,6 hPa 0,5 l/m 2,6 km/h O-NO 16,6 C 20,2 C 1,4 km/h
30.05.2017 21:00 18,7 C 82 % 1015,7 hPa 0,0 l/m 0,0 km/h O-NO 15,6 C 18,7 C 0,0 km/h
30.05.2017 22:00 17,3 C 83 % 1015,9 hPa 0,0 l/m 0,0 km/h O-NO 14,4 C 17,3 C 0,0 km/h
30.05.2017 23:00 17,0 C 83 % 1016,2 hPa 0,0 l/m 0,0 km/h O-SO 14,1 C 17,0 C 0,0 km/h
31.05.2017 00:00 16,4 C 82 % 1017,0 hPa 0,0 l/m 0,0 km/h O-SO 13,3 C 16,4 C 0,0 km/h
31.05.2017 01:00 16,3 C 81 % 1017,5 hPa 0,0 l/m 0,0 km/h SO 13,0 C 16,3 C 0,0 km/h
31.05.2017 02:00 16,1 C 80 % 1017,5 hPa 0,0 l/m 0,0 km/h SO 12,6 C 16,1 C 0,0 km/h
31.05.2017 03:00 15,9 C 79 % 1017,7 hPa 0,0 l/m 0,0 km/h SO 12,3 C 15,9 C 0,0 km/h
31.05.2017 04:00 16,1 C 79 % 1017,9 hPa 0,0 l/m 0,0 km/h SO 12,5 C 16,1 C 0,0 km/h
31.05.2017 05:00 15,8 C 79 % 1018,1 hPa 0,0 l/m 0,0 km/h SO 12,2 C 15,8 C 0,0 km/h
31.05.2017 06:00 15,7 C 78 % 1018,2 hPa 0,0 l/m 0,0 km/h NO 11,9 C 15,7 C 0,0 km/h
31.05.2017 07:00 17,9 C 77 % 1018,3 hPa 0,0 l/m 0,0 km/h NW 13,8 C 17,9 C 0,0 km/h
31.05.2017 08:00 21,9 C 72 % 1018,6 hPa 0,0 l/m 0,0 km/h N-NO 16,6 C 21,9 C 0,0 km/h
31.05.2017 09:00 25,9 C 56 % 1018,7 hPa 0,0 l/m 12,3 km/h N 16,4 C 24,8 C 6,8 km/h
31.05.2017 10:00 26,4 C 55 % 1018,6 hPa 0,0 l/m 0,0 km/h N 16,6 C 26,4 C 0,0 km/h
31.05.2017 11:00 26,9 C 55 % 1018,3 hPa 0,0 l/m 0,0 km/h NW 17,1 C 26,9 C 0,0 km/h
31.05.2017 12:00 27,5 C 53 % 1017,9 hPa 0,0 l/m 7,1 km/h N-NO 17,0 C 27,4 C 4,0 km/h
31.05.2017 13:00 28,2 C 49 % 1017,5 hPa 0,0 l/m 18,8 km/h NW 16,5 C 26,9 C 10,4 km/h
31.05.2017 14:00 27,6 C 50 % 1017,6 hPa 0,0 l/m 0,0 km/h N-NO 16,2 C 27,6 C 0,0 km/h
31.05.2017 15:00 29,3 C 45 % 1017,0 hPa 0,0 l/m 8,4 km/h N-NO 16,1 C 29,1 C 4,7 km/h
31.05.2017 16:00 31,4 C 41 % 1016,4 hPa 0,0 l/m 0,0 km/h N 16,5 C 31,4 C 0,0 km/h
31.05.2017 17:00 32,2 C 37 % 1016,0 hPa 0,0 l/m 0,0 km/h N 15,6 C 32,2 C 0,0 km/h
31.05.2017 18:00 29,3 C 42 % 1016,1 hPa 0,0 l/m 7,8 km/h N-NO 15,0 C 29,1 C 4,3 km/h
31.05.2017 19:00 24,4 C 52 % 1016,3 hPa 0,0 l/m 0,0 km/h N 13,9 C 24,4 C 0,0 km/h
31.05.2017 20:00 21,7 C 60 % 1016,8 hPa 0,0 l/m 0,0 km/h N 13,6 C 21,7 C 0,0 km/h
31.05.2017 21:00 19,1 C 69 % 1017,2 hPa 0,0 l/m 0,0 km/h O 13,3 C 19,1 C 0,0 km/h
31.05.2017 22:00 17,5 C 76 % 1017,4 hPa 0,0 l/m 0,0 km/h O-SO 13,2 C 17,5 C 0,0 km/h
31.05.2017 23:00 17,4 C 78 % 1017,6 hPa 0,0 l/m 0,0 km/h O-SO 13,5 C 17,4 C 0,0 km/h
01.06.2017 00:00 16,9 C 77 % 1017,8 hPa 0,0 l/m 0,0 km/h O-SO 12,8 C 16,9 C 0,0 km/h
01.06.2017 01:00 15,9 C 80 % 1017,8 hPa 0,0 l/m 0,0 km/h O-SO 12,5 C 15,9 C 0,0 km/h
01.06.2017 02:00 16,1 C 82 % 1018,2 hPa 0,0 l/m 0,0 km/h W 13,0 C 16,1 C 0,0 km/h
01.06.2017 03:00 17,2 C 82 % 1018,7 hPa 0,0 l/m 0,0 km/h O-SO 14,1 C 17,2 C 0,0 km/h
01.06.2017 04:00 16,3 C 83 % 1018,6 hPa 1,6 l/m 0,0 km/h O-SO 13,4 C 16,3 C 0,0 km/h
01.06.2017 05:00 15,9 C 83 % 1018,3 hPa 1,6 l/m 0,0 km/h SO 13,0 C 15,9 C 0,0 km/h
01.06.2017 06:00 16,2 C 82 % 1018,4 hPa 0,0 l/m 0,0 km/h SO 13,1 C 16,2 C 0,0 km/h
01.06.2017 07:00 19,1 C 81 % 1018,9 hPa 0,0 l/m 0,0 km/h N-NO 15,8 C 19,1 C 0,0 km/h
01.06.2017 08:00 23,9 C 69 % 1018,7 hPa 0,0 l/m 0,0 km/h NW 17,9 C 23,9 C 0,0 km/h
01.06.2017 09:00 21,9 C 73 % 1018,6 hPa 0,0 l/m 0,0 km/h W 16,8 C 21,9 C 0,0 km/h
01.06.2017 10:00 20,4 C 78 % 1018,7 hPa 0,0 l/m 0,0 km/h W 16,4 C 20,4 C 0,0 km/h
01.06.2017 11:00 21,4 C 78 % 1018,9 hPa 0,0 l/m 0,0 km/h W 17,4 C 21,4 C 0,0 km/h
01.06.2017 12:00 21,8 C 76 % 1019,0 hPa 0,0 l/m 0,0 km/h W 17,4 C 21,8 C 0,0 km/h
01.06.2017 13:00 23,8 C 73 % 1018,4 hPa 0,0 l/m 0,0 km/h N 18,7 C 23,8 C 0,0 km/h
01.06.2017 14:00 28,4 C 62 % 1018,1 hPa 0,0 l/m 0,0 km/h W-NW 20,4 C 28,4 C 0,0 km/h
01.06.2017 15:00 29,8 C 54 % 1017,2 hPa 0,0 l/m 0,0 km/h O-SO 19,5 C 29,8 C 0,0 km/h
01.06.2017 16:00 29,7 C 50 % 1016,8 hPa 0,0 l/m 4,5 km/h S-SW 18,1 C 29,7 C 2,5 km/h
01.06.2017 17:00 26,8 C 60 % 1016,5 hPa 0,0 l/m 0,0 km/h W-NW 18,4 C 26,8 C 0,0 km/h
01.06.2017 18:00 30,9 C 48 % 1016,0 hPa 0,0 l/m 0,0 km/h N 18,6 C 30,9 C 0,0 km/h
01.06.2017 19:00 25,4 C 60 % 1016,0 hPa 0,0 l/m 0,0 km/h NW 17,1 C 25,4 C 0,0 km/h
01.06.2017 20:00 22,5 C 68 % 1016,1 hPa 0,0 l/m 0,0 km/h N-NW 16,3 C 22,5 C 0,0 km/h
01.06.2017 21:00 20,1 C 77 % 1016,6 hPa 0,0 l/m 0,0 km/h O 15,9 C 20,1 C 0,0 km/h
01.06.2017 22:00 18,9 C 81 % 1016,8 hPa 0,0 l/m 0,0 km/h SO 15,6 C 18,9 C 0,0 km/h
01.06.2017 23:00 18,7 C 82 % 1017,0 hPa 0,0 l/m 0,0 km/h SO 15,6 C 18,7 C 0,0 km/h
02.06.2017 00:00 17,6 C 82 % 1016,8 hPa 2,6 l/m 0,0 km/h O-NO 14,5 C 17,6 C 0,0 km/h
02.06.2017 01:00 16,9 C 82 % 1016,3 hPa 1,0 l/m 0,0 km/h SO 13,8 C 16,9 C 0,0 km/h
02.06.2017 02:00 15,9 C 81 % 1015,8 hPa 0,0 l/m 0,0 km/h SO 12,6 C 15,9 C 0,0 km/h
02.06.2017 03:00 14,9 C 81 % 1015,6 hPa 0,0 l/m 0,0 km/h SO 11,7 C 14,9 C 0,0 km/h
02.06.2017 04:00 14,4 C 81 % 1015,7 hPa 0,0 l/m 0,0 km/h SO 11,2 C 14,4 C 0,0 km/h
02.06.2017 05:00 14,7 C 79 % 1015,5 hPa 0,0 l/m 0,0 km/h SO 11,1 C 14,7 C 0,0 km/h
02.06.2017 06:00 14,9 C 79 % 1015,6 hPa 0,0 l/m 0,0 km/h NO 11,3 C 14,9 C 0,0 km/h
02.06.2017 07:00 17,8 C 74 % 1016,0 hPa 0,0 l/m 0,0 km/h NO 13,1 C 17,8 C 0,0 km/h
02.06.2017 08:00 25,3 C 70 % 1016,1 hPa 0,0 l/m 0,0 km/h SO 19,4 C 25,3 C 0,0 km/h
02.06.2017 09:00 28,3 C 60 % 1015,8 hPa 0,0 l/m 0,0 km/h W 19,8 C 28,3 C 0,0 km/h
02.06.2017 10:00 27,9 C 60 % 1015,8 hPa 0,0 l/m 1,9 km/h W 19,4 C 27,9 C 1,1 km/h
02.06.2017 11:00 28,2 C 58 % 1015,5 hPa 0,0 l/m 4,5 km/h N-NO 19,1 C 28,2 C 2,5 km/h
02.06.2017 12:00 29,9 C 51 % 1014,8 hPa 0,0 l/m 0,0 km/h SW 18,6 C 29,9 C 0,0 km/h
02.06.2017 13:00 31,3 C 47 % 1014,4 hPa 0,0 l/m 0,0 km/h N 18,6 C 31,3 C 0,0 km/h
02.06.2017 14:00 24,0 C 56 % 1014,7 hPa 0,0 l/m 0,0 km/h O-SO 14,7 C 24,0 C 0,0 km/h
02.06.2017 15:00 25,2 C 54 % 1014,2 hPa 0,0 l/m 0,0 km/h N 15,2 C 25,2 C 0,0 km/h
02.06.2017 16:00 28,8 C 51 % 1013,7 hPa 0,0 l/m 0,0 km/h N-NO 17,6 C 28,8 C 0,0 km/h
02.06.2017 17:00 26,3 C 55 % 1013,5 hPa 0,0 l/m 0,0 km/h O-SO 16,5 C 26,3 C 0,0 km/h
02.06.2017 18:00 25,6 C 52 % 1012,9 hPa 0,0 l/m 0,0 km/h O-NO 15,0 C 25,6 C 0,0 km/h
02.06.2017 19:00 21,9 C 66 % 1013,3 hPa 0,0 l/m 0,0 km/h O-NO 15,3 C 21,9 C 0,0 km/h
02.06.2017 20:00 20,2 C 73 % 1013,2 hPa 0,0 l/m 0,0 km/h O-NO 15,2 C 20,2 C 0,0 km/h
02.06.2017 21:00 18,1 C 78 % 1013,8 hPa 0,0 l/m 0,0 km/h O-NO 14,2 C 18,1 C 0,0 km/h
02.06.2017 22:00 16,5 C 81 % 1013,4 hPa 0,0 l/m 0,0 km/h O-NO 13,2 C 16,5 C 0,0 km/h
02.06.2017 23:00 15,7 C 83 % 1013,5 hPa 0,0 l/m 0,0 km/h O-NO 12,8 C 15,7 C 0,0 km/h
03.06.2017 00:00 15,3 C 83 % 1013,5 hPa 0,0 l/m 0,0 km/h O-NO 12,4 C 15,3 C 0,0 km/h
03.06.2017 01:00 14,9 C 83 % 1013,1 hPa 0,0 l/m 0,0 km/h O-NO 12,0 C 14,9 C 0,0 km/h
03.06.2017 02:00 14,1 C 83 % 1013,0 hPa 0,0 l/m 0,0 km/h O-NO 11,3 C 14,1 C 0,0 km/h
03.06.2017 03:00 13,6 C 83 % 1012,7 hPa 0,0 l/m 0,0 km/h SO 10,8 C 13,6 C 0,0 km/h
03.06.2017 04:00 13,4 C 82 % 1012,4 hPa 0,0 l/m 0,0 km/h SO 10,4 C 13,4 C 0,0 km/h
03.06.2017 05:00 13,4 C 82 % 1012,4 hPa 0,0 l/m 0,0 km/h O-NO 10,4 C 13,4 C 0,0 km/h
03.06.2017 06:00 15,3 C 80 % 1012,3 hPa 0,0 l/m 0,0 km/h O-SO 11,9 C 15,3 C 0,0 km/h
03.06.2017 07:00 17,9 C 83 % 1012,5 hPa 0,0 l/m 0,0 km/h O 15,0 C 17,9 C 0,0 km/h
03.06.2017 08:00 27,6 C 63 % 1012,6 hPa 0,0 l/m 0,0 km/h S-SO 19,9 C 27,6 C 0,0 km/h
03.06.2017 09:00 29,3 C 52 % 1012,4 hPa 0,0 l/m 0,0 km/h SW 18,4 C 29,3 C 0,0 km/h
03.06.2017 10:00 29,3 C 53 % 1012,1 hPa 0,0 l/m 5,8 km/h W-SW 18,7 C 29,3 C 3,2 km/h
03.06.2017 11:00 28,8 C 51 % 1011,6 hPa 0,0 l/m 5,8 km/h W 17,6 C 28,8 C 3,2 km/h
03.06.2017 12:00 29,1 C 49 % 1011,0 hPa 0,0 l/m 4,5 km/h W 17,3 C 29,1 C 2,5 km/h
03.06.2017 13:00 25,9 C 55 % 1011,1 hPa 0,0 l/m 0,0 km/h O-SO 16,2 C 25,9 C 0,0 km/h
03.06.2017 14:00 27,3 C 55 % 1010,0 hPa 0,0 l/m 0,0 km/h W 17,4 C 27,3 C 0,0 km/h
03.06.2017 15:00 23,8 C 67 % 1010,2 hPa 0,0 l/m 24,0 km/h SW 17,3 C 20,6 C 13,3 km/h
03.06.2017 16:00 23,6 C 71 % 1010,0 hPa 0,0 l/m 0,0 km/h W-NW 18,0 C 23,6 C 0,0 km/h
03.06.2017 17:00 23,0 C 73 % 1009,8 hPa 0,0 l/m 3,2 km/h W-NW 17,9 C 23,0 C 1,8 km/h
03.06.2017 18:00 21,7 C 72 % 1010,1 hPa 0,0 l/m 0,0 km/h N-NO 16,4 C 21,7 C 0,0 km/h
03.06.2017 19:00 20,4 C 73 % 1009,9 hPa 0,0 l/m 0,0 km/h W-NW 15,4 C 20,4 C 0,0 km/h
03.06.2017 20:00 18,8 C 79 % 1009,7 hPa 0,0 l/m 0,0 km/h W-NW 15,1 C 18,8 C 0,0 km/h
03.06.2017 21:00 17,6 C 82 % 1010,1 hPa 0,0 l/m 0,0 km/h W-NW 14,5 C 17,6 C 0,0 km/h
03.06.2017 22:00 17,3 C 83 % 1010,2 hPa 0,0 l/m 0,0 km/h W-NW 14,4 C 17,3 C 0,0 km/h
03.06.2017 23:00 17,0 C 83 % 1009,7 hPa 1,6 l/m 0,0 km/h W-NW 14,1 C 17,0 C 0,0 km/h
04.06.2017 00:00 16,6 C 82 % 1008,7 hPa 0,5 l/m 0,0 km/h W-NW 13,5 C 16,6 C 0,0 km/h
04.06.2017 01:00 16,6 C 82 % 1008,8 hPa 1,6 l/m 0,0 km/h SO 13,5 C 16,6 C 0,0 km/h
04.06.2017 02:00 16,4 C 80 % 1008,6 hPa 4,7 l/m 0,0 km/h W 12,9 C 16,4 C 0,0 km/h
04.06.2017 03:00 15,6 C 73 % 1010,2 hPa 15,5 l/m 0,0 km/h W 10,8 C 15,6 C 0,0 km/h
04.06.2017 04:00 15,6 C 69 % 1010,8 hPa 0,0 l/m 0,0 km/h SW 9,9 C 15,6 C 0,0 km/h
04.06.2017 05:00 15,2 C 66 % 1011,8 hPa 1,6 l/m 0,0 km/h W-NW 8,9 C 15,2 C 0,0 km/h
04.06.2017 06:00 15,2 C 63 % 1012,8 hPa 0,0 l/m 0,0 km/h W 8,2 C 15,2 C 0,0 km/h
04.06.2017 07:00 15,6 C 63 % 1013,5 hPa 0,0 l/m 0,0 km/h W-NW 8,6 C 15,6 C 0,0 km/h
04.06.2017 08:00 15,9 C 70 % 1014,2 hPa 0,0 l/m 0,0 km/h W-NW 10,4 C 15,9 C 0,0 km/h
04.06.2017 09:00 21,3 C 72 % 1015,0 hPa 0,5 l/m 0,0 km/h W 16,0 C 21,3 C 0,0 km/h
04.06.2017 10:00 23,3 C 65 % 1015,1 hPa 0,0 l/m 0,0 km/h N 16,3 C 23,3 C 0,0 km/h
04.06.2017 11:00 23,8 C 58 % 1015,2 hPa 0,0 l/m 0,0 km/h NW 15,0 C 23,8 C 0,0 km/h
04.06.2017 12:00 22,7 C 50 % 1015,0 hPa 0,0 l/m 0,0 km/h W-NW 11,7 C 22,7 C 0,0 km/h
04.06.2017 13:00 23,5 C 45 % 1015,1 hPa 0,0 l/m 0,0 km/h W-NW 10,9 C 23,5 C 0,0 km/h
04.06.2017 14:00 24,8 C 46 % 1014,7 hPa 0,0 l/m 14,3 km/h N 12,4 C 23,2 C 7,9 km/h
04.06.2017 15:00 24,6 C 46 % 1014,4 hPa 0,0 l/m 0,0 km/h N 12,2 C 24,6 C 0,0 km/h
04.06.2017 16:00 26,7 C 43 % 1013,9 hPa 0,0 l/m 3,2 km/h NW 13,1 C 26,7 C 1,8 km/h
04.06.2017 17:00 23,4 C 46 % 1014,0 hPa 0,0 l/m 0,0 km/h N-NO 11,1 C 23,4 C 0,0 km/h
04.06.2017 18:00 21,9 C 52 % 1013,9 hPa 0,0 l/m 1,3 km/h N-NO 11,6 C 21,9 C 0,7 km/h
04.06.2017 19:00 19,1 C 56 % 1014,3 hPa 0,0 l/m 0,0 km/h N-NO 10,1 C 19,1 C 0,0 km/h
04.06.2017 20:00 17,6 C 59 % 1014,0 hPa 0,0 l/m 0,0 km/h N 9,5 C 17,6 C 0,0 km/h
04.06.2017 21:00 14,1 C 69 % 1014,4 hPa 0,0 l/m 0,0 km/h O-SO 8,5 C 14,1 C 0,0 km/h
04.06.2017 22:00 11,9 C 78 % 1014,4 hPa 0,0 l/m 0,0 km/h N 8,2 C 11,9 C 0,0 km/h
Min-Datum _ 04.06.17 29.05.17 04.06.17 - 29.05.17 - 04.06.17 04.06.17 29.05.17
_ Min-Zeit 22:56 14:56 02:56 - 00:56 - 22:56 22:56 00:56
Minimum _ 11,9 C 28 % 1008,6 hPa - 0,0 km/h - 8,2 C 11,9 C 0,0 km/h
Max-Datum _ 29.05.17 29.05.17 01.06.17 04.06.17 03.06.17 - 01.06.17 29.05.17 03.06.17
_ Max-Zeit 13:56 01:56 12:56 03:56 15:56 - 14:56 13:56 15:56
Maximum _ 38,6 C 83 % 1019,0 hPa 15,5 l/m 24,0 km/h
SW
- 20,4 C 38,6 C 13,3 km/h
SW
Durchschnitt _ 22,2 C 66 % 1014,2 hPa #36,3 l/m 1,4 km/h O-SO 14,9 C 22,1 C 0,8 km/h
www.sexauwetter.de